sensor_id;sensor_type;location;lat;lon;timestamp;temperature;humidity
38380;DHT22;38377;47.418;18.882;2022-07-05T00:00:35;23.80;99.90
38380;DHT22;38377;47.418;18.882;2022-07-05T00:03:03;23.80;99.90
38380;DHT22;38377;47.418;18.882;2022-07-05T00:05:28;23.70;99.90
38380;DHT22;38377;47.418;18.882;2022-07-05T00:07:54;23.70;99.90
38380;DHT22;38377;47.418;18.882;2022-07-05T00:10:20;23.70;99.90
38380;DHT22;38377;47.418;18.882;2022-07-05T00:12:45;23.70;99.90
38380;DHT22;38377;47.418;18.882;2022-07-05T00:15:11;23.70;99.90
38380;DHT22;38377;47.418;18.882;2022-07-05T00:17:37;23.60;99.90
38380;DHT22;38377;47.418;18.882;2022-07-05T00:20:03;23.50;99.90
38380;DHT22;38377;47.418;18.882;2022-07-05T00:22:29;23.50;99.90
38380;DHT22;38377;47.418;18.882;2022-07-05T00:24:55;23.40;99.90
38380;DHT22;38377;47.418;18.882;2022-07-05T00:27:21;23.50;99.90
38380;DHT22;38377;47.418;18.882;2022-07-05T00:29:46;23.40;99.90
38380;DHT22;38377;47.418;18.882;2022-07-05T00:32:12;23.40;99.90
38380;DHT22;38377;47.418;18.882;2022-07-05T00:34:38;23.30;99.90
38380;DHT22;38377;47.418;18.882;2022-07-05T00:37:04;23.30;99.90
38380;DHT22;38377;47.418;18.882;2022-07-05T00:39:29;23.20;99.90
38380;DHT22;38377;47.418;18.882;2022-07-05T00:41:55;23.20;99.90
38380;DHT22;38377;47.418;18.882;2022-07-05T00:44:32;23.10;99.90
38380;DHT22;38377;47.418;18.882;2022-07-05T00:47:01;23.10;99.90
38380;DHT22;38377;47.418;18.882;2022-07-05T00:49:26;23.10;99.90
38380;DHT22;38377;47.418;18.882;2022-07-05T00:51:52;23.00;99.90
38380;DHT22;38377;47.418;18.882;2022-07-05T00:54:18;23.10;99.90
38380;DHT22;38377;47.418;18.882;2022-07-05T00:56:44;23.10;99.90
38380;DHT22;38377;47.418;18.882;2022-07-05T00:59:10;23.10;99.90
38380;DHT22;38377;47.418;18.882;2022-07-05T01:01:35;23.10;99.90
38380;DHT22;38377;47.418;18.882;2022-07-05T01:04:01;23.00;99.90
38380;DHT22;38377;47.418;18.882;2022-07-05T01:06:27;23.00;99.90
38380;DHT22;38377;47.418;18.882;2022-07-05T01:08:53;22.90;99.90
38380;DHT22;38377;47.418;18.882;2022-07-05T01:11:19;23.00;99.90
38380;DHT22;38377;47.418;18.882;2022-07-05T01:13:44;22.90;99.90
38380;DHT22;38377;47.418;18.882;2022-07-05T01:16:10;22.90;99.90
38380;DHT22;38377;47.418;18.882;2022-07-05T01:18:36;22.90;99.90
38380;DHT22;38377;47.418;18.882;2022-07-05T01:21:02;22.90;99.90
38380;DHT22;38377;47.418;18.882;2022-07-05T01:23:32;22.80;99.90
38380;DHT22;38377;47.418;18.882;2022-07-05T01:26:00;22.80;99.90
38380;DHT22;38377;47.418;18.882;2022-07-05T01:28:26;22.80;99.90
38380;DHT22;38377;47.418;18.882;2022-07-05T01:30:52;22.80;99.90
38380;DHT22;38377;47.418;18.882;2022-07-05T01:33:18;22.80;99.90
38380;DHT22;38377;47.418;18.882;2022-07-05T01:35:44;22.80;99.90
38380;DHT22;38377;47.418;18.882;2022-07-05T01:38:11;22.80;99.90
38380;DHT22;38377;47.418;18.882;2022-07-05T01:40:37;22.80;99.90
38380;DHT22;38377;47.418;18.882;2022-07-05T01:43:04;22.90;99.90
38380;DHT22;38377;47.418;18.882;2022-07-05T01:45:30;22.90;99.90
38380;DHT22;38377;47.418;18.882;2022-07-05T01:48:08;23.00;99.90
38380;DHT22;38377;47.418;18.882;2022-07-05T01:50:38;23.00;99.40
38380;DHT22;38377;47.418;18.882;2022-07-05T01:53:05;23.00;99.00
38380;DHT22;38377;47.418;18.882;2022-07-05T01:55:34;23.10;98.80
38380;DHT22;38377;47.418;18.882;2022-07-05T01:58:00;23.00;98.50
38380;DHT22;38377;47.418;18.882;2022-07-05T02:00:26;23.10;97.90
38380;DHT22;38377;47.418;18.882;2022-07-05T02:02:52;23.20;97.20
38380;DHT22;38377;47.418;18.882;2022-07-05T02:05:18;23.20;96.60
38380;DHT22;38377;47.418;18.882;2022-07-05T02:07:50;23.20;96.40
38380;DHT22;38377;47.418;18.882;2022-07-05T02:10:16;23.30;96.00
38380;DHT22;38377;47.418;18.882;2022-07-05T02:12:42;23.30;95.90
38380;DHT22;38377;47.418;18.882;2022-07-05T02:15:08;23.40;95.00
38380;DHT22;38377;47.418;18.882;2022-07-05T02:17:34;23.50;94.50
38380;DHT22;38377;47.418;18.882;2022-07-05T02:20:00;23.50;94.20
38380;DHT22;38377;47.418;18.882;2022-07-05T02:22:26;23.50;94.00
38380;DHT22;38377;47.418;18.882;2022-07-05T02:24:51;23.60;94.20
38380;DHT22;38377;47.418;18.882;2022-07-05T02:27:17;23.50;94.10
38380;DHT22;38377;47.418;18.882;2022-07-05T02:29:43;23.60;94.10
38380;DHT22;38377;47.418;18.882;2022-07-05T02:32:09;23.50;94.30
38380;DHT22;38377;47.418;18.882;2022-07-05T02:34:34;23.40;94.40
38380;DHT22;38377;47.418;18.882;2022-07-05T02:37:00;23.40;94.60
38380;DHT22;38377;47.418;18.882;2022-07-05T02:39:26;23.40;94.60
38380;DHT22;38377;47.418;18.882;2022-07-05T02:41:52;23.40;95.20
38380;DHT22;38377;47.418;18.882;2022-07-05T02:44:17;23.40;95.20
38380;DHT22;38377;47.418;18.882;2022-07-05T02:46:43;23.30;95.60
38380;DHT22;38377;47.418;18.882;2022-07-05T02:49:09;23.40;96.00
38380;DHT22;38377;47.418;18.882;2022-07-05T02:51:34;23.40;96.30
38380;DHT22;38377;47.418;18.882;2022-07-05T02:54:00;23.40;96.70
38380;DHT22;38377;47.418;18.882;2022-07-05T02:56:26;23.40;97.10
38380;DHT22;38377;47.418;18.882;2022-07-05T02:58:51;23.40;97.40
38380;DHT22;38377;47.418;18.882;2022-07-05T03:01:17;23.40;97.80
38380;DHT22;38377;47.418;18.882;2022-07-05T03:03:43;23.30;98.10
38380;DHT22;38377;47.418;18.882;2022-07-05T03:06:08;23.20;98.60
38380;DHT22;38377;47.418;18.882;2022-07-05T03:08:35;23.20;99.10
38380;DHT22;38377;47.418;18.882;2022-07-05T03:11:01;23.10;99.60
38380;DHT22;38377;47.418;18.882;2022-07-05T03:13:26;23.10;99.90
38380;DHT22;38377;47.418;18.882;2022-07-05T03:15:52;23.00;99.90
38380;DHT22;38377;47.418;18.882;2022-07-05T03:18:18;23.00;99.90
38380;DHT22;38377;47.418;18.882;2022-07-05T03:20:43;22.90;99.90
38380;DHT22;38377;47.418;18.882;2022-07-05T03:23:09;22.90;99.90
38380;DHT22;38377;47.418;18.882;2022-07-05T03:25:35;22.80;99.90
38380;DHT22;38377;47.418;18.882;2022-07-05T03:28:01;22.80;99.90
38380;DHT22;38377;47.418;18.882;2022-07-05T03:30:26;22.80;99.90
38380;DHT22;38377;47.418;18.882;2022-07-05T03:32:52;22.80;99.90
38380;DHT22;38377;47.418;18.882;2022-07-05T03:35:18;22.80;99.90
38380;DHT22;38377;47.418;18.882;2022-07-05T03:37:43;22.70;99.90
38380;DHT22;38377;47.418;18.882;2022-07-05T03:40:09;22.80;99.90
38380;DHT22;38377;47.418;18.882;2022-07-05T03:42:35;22.80;99.90
38380;DHT22;38377;47.418;18.882;2022-07-05T03:45:02;22.80;99.90
38380;DHT22;38377;47.418;18.882;2022-07-05T03:47:28;22.80;99.90
38380;DHT22;38377;47.418;18.882;2022-07-05T03:49:54;22.80;99.90
38380;DHT22;38377;47.418;18.882;2022-07-05T03:52:20;22.80;99.90
38380;DHT22;38377;47.418;18.882;2022-07-05T03:54:46;22.80;99.90
38380;DHT22;38377;47.418;18.882;2022-07-05T03:57:12;22.80;99.90
38380;DHT22;38377;47.418;18.882;2022-07-05T03:59:39;22.80;99.90
38380;DHT22;38377;47.418;18.882;2022-07-05T04:02:04;22.80;99.90
38380;DHT22;38377;47.418;18.882;2022-07-05T04:04:30;22.80;99.90
38380;DHT22;38377;47.418;18.882;2022-07-05T04:06:56;22.80;99.90
38380;DHT22;38377;47.418;18.882;2022-07-05T04:09:22;22.80;99.90
38380;DHT22;38377;47.418;18.882;2022-07-05T04:11:47;22.80;99.90
38380;DHT22;38377;47.418;18.882;2022-07-05T04:14:13;22.80;99.90
38380;DHT22;38377;47.418;18.882;2022-07-05T04:16:39;22.80;99.90
38380;DHT22;38377;47.418;18.882;2022-07-05T04:19:04;22.90;99.90
38380;DHT22;38377;47.418;18.882;2022-07-05T04:21:32;22.90;99.90
38380;DHT22;38377;47.418;18.882;2022-07-05T04:23:59;23.00;99.90
38380;DHT22;38377;47.418;18.882;2022-07-05T04:26:25;23.00;99.90
38380;DHT22;38377;47.418;18.882;2022-07-05T04:28:50;23.10;99.90
38380;DHT22;38377;47.418;18.882;2022-07-05T04:31:16;23.20;99.90
38380;DHT22;38377;47.418;18.882;2022-07-05T04:33:42;23.30;99.90
38380;DHT22;38377;47.418;18.882;2022-07-05T04:36:08;23.40;99.90
38380;DHT22;38377;47.418;18.882;2022-07-05T04:38:33;23.30;99.90
38380;DHT22;38377;47.418;18.882;2022-07-05T04:40:59;23.20;99.90
38380;DHT22;38377;47.418;18.882;2022-07-05T04:43:25;23.20;99.90
38380;DHT22;38377;47.418;18.882;2022-07-05T04:45:50;23.20;99.90
38380;DHT22;38377;47.418;18.882;2022-07-05T04:48:16;23.20;99.90
38380;DHT22;38377;47.418;18.882;2022-07-05T04:50:42;23.20;99.90
38380;DHT22;38377;47.418;18.882;2022-07-05T04:53:07;23.20;99.90
38380;DHT22;38377;47.418;18.882;2022-07-05T04:55:33;23.20;99.90
38380;DHT22;38377;47.418;18.882;2022-07-05T04:57:59;23.20;99.90
38380;DHT22;38377;47.418;18.882;2022-07-05T05:00:24;23.20;99.90
38380;DHT22;38377;47.418;18.882;2022-07-05T05:02:50;23.20;99.90
38380;DHT22;38377;47.418;18.882;2022-07-05T05:05:16;23.20;99.90
38380;DHT22;38377;47.418;18.882;2022-07-05T05:07:43;23.20;99.90
38380;DHT22;38377;47.418;18.882;2022-07-05T05:10:09;23.20;99.90
38380;DHT22;38377;47.418;18.882;2022-07-05T05:12:34;23.30;99.80
38380;DHT22;38377;47.418;18.882;2022-07-05T05:15:00;23.30;99.60
38380;DHT22;38377;47.418;18.882;2022-07-05T05:17:34;23.40;99.40
38380;DHT22;38377;47.418;18.882;2022-07-05T05:20:00;23.40;99.80
38380;DHT22;38377;47.418;18.882;2022-07-05T05:22:25;23.40;99.10
38380;DHT22;38377;47.418;18.882;2022-07-05T05:24:51;23.50;98.70
38380;DHT22;38377;47.418;18.882;2022-07-05T05:27:17;23.50;98.70
38380;DHT22;38377;47.418;18.882;2022-07-05T05:29:43;23.60;98.80
38380;DHT22;38377;47.418;18.882;2022-07-05T05:32:08;23.70;98.40
38380;DHT22;38377;47.418;18.882;2022-07-05T05:34:34;23.70;98.20
38380;DHT22;38377;47.418;18.882;2022-07-05T05:36:59;23.70;98.30
38380;DHT22;38377;47.418;18.882;2022-07-05T05:39:25;23.60;98.10
38380;DHT22;38377;47.418;18.882;2022-07-05T05:41:51;23.50;98.00
38380;DHT22;38377;47.418;18.882;2022-07-05T05:44:16;23.50;98.20
38380;DHT22;38377;47.418;18.882;2022-07-05T05:46:42;23.40;98.40
38380;DHT22;38377;47.418;18.882;2022-07-05T05:49:09;23.40;98.70
38380;DHT22;38377;47.418;18.882;2022-07-05T05:51:36;23.30;98.70
38380;DHT22;38377;47.418;18.882;2022-07-05T05:54:01;23.20;99.00
38380;DHT22;38377;47.418;18.882;2022-07-05T05:56:27;23.20;99.50
38380;DHT22;38377;47.418;18.882;2022-07-05T05:58:53;23.20;99.60
38380;DHT22;38377;47.418;18.882;2022-07-05T06:01:18;23.20;99.50
38380;DHT22;38377;47.418;18.882;2022-07-05T06:03:44;23.20;99.40
38380;DHT22;38377;47.418;18.882;2022-07-05T06:06:10;23.10;99.80
38380;DHT22;38377;47.418;18.882;2022-07-05T06:08:35;23.10;99.90
38380;DHT22;38377;47.418;18.882;2022-07-05T06:11:01;23.20;99.90
38380;DHT22;38377;47.418;18.882;2022-07-05T06:13:29;23.20;99.90
38380;DHT22;38377;47.418;18.882;2022-07-05T06:15:55;23.30;99.90
38380;DHT22;38377;47.418;18.882;2022-07-05T06:18:21;23.30;99.90
38380;DHT22;38377;47.418;18.882;2022-07-05T06:20:47;23.40;99.90
38380;DHT22;38377;47.418;18.882;2022-07-05T06:23:14;23.50;99.90
38380;DHT22;38377;47.418;18.882;2022-07-05T06:25:40;23.50;99.90
38380;DHT22;38377;47.418;18.882;2022-07-05T06:28:07;23.70;99.90
38380;DHT22;38377;47.418;18.882;2022-07-05T06:30:35;23.70;99.40
38380;DHT22;38377;47.418;18.882;2022-07-05T06:33:02;23.80;99.40
38380;DHT22;38377;47.418;18.882;2022-07-05T06:35:28;23.80;99.00
38380;DHT22;38377;47.418;18.882;2022-07-05T06:38:03;23.80;98.60
38380;DHT22;38377;47.418;18.882;2022-07-05T06:40:31;24.00;99.20
38380;DHT22;38377;47.418;18.882;2022-07-05T06:43:00;24.20;98.60
38380;DHT22;38377;47.418;18.882;2022-07-05T06:45:26;24.30;98.20
38380;DHT22;38377;47.418;18.882;2022-07-05T06:50:30;24.20;98.20
38380;DHT22;38377;47.418;18.882;2022-07-05T06:52:56;24.10;98.60
38380;DHT22;38377;47.418;18.882;2022-07-05T06:55:22;24.00;99.00
38380;DHT22;38377;47.418;18.882;2022-07-05T06:57:49;23.90;99.00
38380;DHT22;38377;47.418;18.882;2022-07-05T07:00:15;23.90;98.90
38380;DHT22;38377;47.418;18.882;2022-07-05T07:02:41;24.20;98.70
38380;DHT22;38377;47.418;18.882;2022-07-05T07:05:07;24.40;98.60
38380;DHT22;38377;47.418;18.882;2022-07-05T07:07:33;24.60;98.50
38380;DHT22;38377;47.418;18.882;2022-07-05T07:10:18;24.50;98.00
38380;DHT22;38377;47.418;18.882;2022-07-05T07:12:44;24.30;98.40
38380;DHT22;38377;47.418;18.882;2022-07-05T07:15:10;24.20;98.20
38380;DHT22;38377;47.418;18.882;2022-07-05T07:17:36;24.00;99.10
38380;DHT22;38377;47.418;18.882;2022-07-05T07:20:02;24.00;98.20
38380;DHT22;38377;47.418;18.882;2022-07-05T07:22:28;24.10;98.10
38380;DHT22;38377;47.418;18.882;2022-07-05T07:24:54;24.10;98.40
38380;DHT22;38377;47.418;18.882;2022-07-05T07:27:20;23.90;99.00
38380;DHT22;38377;47.418;18.882;2022-07-05T07:29:45;24.00;98.90
38380;DHT22;38377;47.418;18.882;2022-07-05T07:32:11;23.90;98.70
38380;DHT22;38377;47.418;18.882;2022-07-05T07:34:37;23.80;99.40
38380;DHT22;38377;47.418;18.882;2022-07-05T07:37:04;23.90;99.50
38380;DHT22;38377;47.418;18.882;2022-07-05T07:39:30;23.90;99.30
38380;DHT22;38377;47.418;18.882;2022-07-05T07:41:59;23.90;99.60
38380;DHT22;38377;47.418;18.882;2022-07-05T07:44:24;23.80;99.50
38380;DHT22;38377;47.418;18.882;2022-07-05T07:46:50;23.80;99.90
38380;DHT22;38377;47.418;18.882;2022-07-05T07:49:17;23.70;99.90
38380;DHT22;38377;47.418;18.882;2022-07-05T07:51:43;23.70;99.60
38380;DHT22;38377;47.418;18.882;2022-07-05T07:54:08;23.50;99.90
38380;DHT22;38377;47.418;18.882;2022-07-05T07:56:34;23.50;99.90
38380;DHT22;38377;47.418;18.882;2022-07-05T07:59:00;23.70;99.90
38380;DHT22;38377;47.418;18.882;2022-07-05T08:01:26;23.70;99.90
38380;DHT22;38377;47.418;18.882;2022-07-05T08:03:52;23.60;99.90
38380;DHT22;38377;47.418;18.882;2022-07-05T08:06:18;23.60;99.90
38380;DHT22;38377;47.418;18.882;2022-07-05T08:08:44;23.60;99.90
38380;DHT22;38377;47.418;18.882;2022-07-05T08:11:11;23.50;99.90
38380;DHT22;38377;47.418;18.882;2022-07-05T08:13:37;23.50;99.90
38380;DHT22;38377;47.418;18.882;2022-07-05T08:16:05;23.40;99.90
38380;DHT22;38377;47.418;18.882;2022-07-05T08:18:30;23.50;99.90
38380;DHT22;38377;47.418;18.882;2022-07-05T08:21:15;23.70;99.90
38380;DHT22;38377;47.418;18.882;2022-07-05T08:24:01;23.90;99.90
38380;DHT22;38377;47.418;18.882;2022-07-05T08:26:28;24.20;99.90
38380;DHT22;38377;47.418;18.882;2022-07-05T08:28:56;24.30;99.80
38380;DHT22;38377;47.418;18.882;2022-07-05T08:31:24;24.40;99.40
38380;DHT22;38377;47.418;18.882;2022-07-05T08:33:50;24.20;99.40
38380;DHT22;38377;47.418;18.882;2022-07-05T08:36:16;24.20;99.90
38380;DHT22;38377;47.418;18.882;2022-07-05T08:38:42;24.40;99.90
38380;DHT22;38377;47.418;18.882;2022-07-05T08:41:10;24.30;99.90
38380;DHT22;38377;47.418;18.882;2022-07-05T08:43:45;24.00;99.90
38380;DHT22;38377;47.418;18.882;2022-07-05T08:46:12;23.90;99.90
38380;DHT22;38377;47.418;18.882;2022-07-05T08:48:40;23.80;99.90
38380;DHT22;38377;47.418;18.882;2022-07-05T08:53:40;23.60;99.90
38380;DHT22;38377;47.418;18.882;2022-07-05T08:56:08;23.50;99.90
38380;DHT22;38377;47.418;18.882;2022-07-05T08:58:35;23.50;99.90
38380;DHT22;38377;47.418;18.882;2022-07-05T09:01:02;23.40;99.90
38380;DHT22;38377;47.418;18.882;2022-07-05T09:03:38;23.30;99.90
38380;DHT22;38377;47.418;18.882;2022-07-05T09:06:08;23.20;99.90
38380;DHT22;38377;47.418;18.882;2022-07-05T09:08:36;23.00;99.90
38380;DHT22;38377;47.418;18.882;2022-07-05T09:11:13;23.00;99.90
38380;DHT22;38377;47.418;18.882;2022-07-05T09:13:43;23.00;99.90
38380;DHT22;38377;47.418;18.882;2022-07-05T09:16:09;23.10;99.90
38380;DHT22;38377;47.418;18.882;2022-07-05T09:18:47;23.10;99.90
38380;DHT22;38377;47.418;18.882;2022-07-05T09:21:14;23.30;99.90
38380;DHT22;38377;47.418;18.882;2022-07-05T09:23:40;23.30;99.90
38380;DHT22;38377;47.418;18.882;2022-07-05T09:26:06;23.30;99.90
38380;DHT22;38377;47.418;18.882;2022-07-05T09:28:32;23.40;99.90
38380;DHT22;38377;47.418;18.882;2022-07-05T09:30:57;23.50;99.90
38380;DHT22;38377;47.418;18.882;2022-07-05T09:33:23;23.80;99.90
38380;DHT22;38377;47.418;18.882;2022-07-05T09:35:56;24.00;99.90
38380;DHT22;38377;47.418;18.882;2022-07-05T09:38:27;23.70;99.90
38380;DHT22;38377;47.418;18.882;2022-07-05T09:40:55;23.30;99.90
38380;DHT22;38377;47.418;18.882;2022-07-05T09:43:23;22.90;99.90
38380;DHT22;38377;47.418;18.882;2022-07-05T09:46:04;22.70;99.90
38380;DHT22;38377;47.418;18.882;2022-07-05T09:48:32;22.50;99.90
38380;DHT22;38377;47.418;18.882;2022-07-05T09:51:09;22.30;99.90
38380;DHT22;38377;47.418;18.882;2022-07-05T09:53:48;21.90;99.90
38380;DHT22;38377;47.418;18.882;2022-07-05T09:56:14;21.40;99.90
38380;DHT22;38377;47.418;18.882;2022-07-05T09:58:40;21.00;99.90
38380;DHT22;38377;47.418;18.882;2022-07-05T10:01:31;20.80;99.90
38380;DHT22;38377;47.418;18.882;2022-07-05T10:04:00;20.50;99.90
38380;DHT22;38377;47.418;18.882;2022-07-05T10:06:32;20.40;99.90
38380;DHT22;38377;47.418;18.882;2022-07-05T10:08:59;20.30;99.90
38380;DHT22;38377;47.418;18.882;2022-07-05T10:11:24;20.40;99.90
38380;DHT22;38377;47.418;18.882;2022-07-05T10:13:54;20.40;99.90
38380;DHT22;38377;47.418;18.882;2022-07-05T10:16:21;20.40;99.90
38380;DHT22;38377;47.418;18.882;2022-07-05T10:18:51;20.50;99.90
38380;DHT22;38377;47.418;18.882;2022-07-05T10:21:18;20.60;99.90
38380;DHT22;38377;47.418;18.882;2022-07-05T10:23:48;20.60;99.90
38380;DHT22;38377;47.418;18.882;2022-07-05T10:26:15;20.60;99.90
38380;DHT22;38377;47.418;18.882;2022-07-05T10:28:45;20.60;99.90
38380;DHT22;38377;47.418;18.882;2022-07-05T10:31:13;20.60;99.90
38380;DHT22;38377;47.418;18.882;2022-07-05T10:33:39;20.60;99.90
38380;DHT22;38377;47.418;18.882;2022-07-05T10:36:07;20.50;99.90
38380;DHT22;38377;47.418;18.882;2022-07-05T10:38:41;20.50;99.90
38380;DHT22;38377;47.418;18.882;2022-07-05T10:41:11;20.60;99.90
38380;DHT22;38377;47.418;18.882;2022-07-05T10:43:38;20.60;99.90
38380;DHT22;38377;47.418;18.882;2022-07-05T10:46:03;20.60;99.90
38380;DHT22;38377;47.418;18.882;2022-07-05T10:48:33;20.50;99.90
38380;DHT22;38377;47.418;18.882;2022-07-05T10:51:21;20.50;99.90
38380;DHT22;38377;47.418;18.882;2022-07-05T10:56:12;20.60;99.90
38380;DHT22;38377;47.418;18.882;2022-07-05T10:58:42;20.70;99.90
38380;DHT22;38377;47.418;18.882;2022-07-05T11:04:07;20.60;99.90
38380;DHT22;38377;47.418;18.882;2022-07-05T11:06:39;20.70;99.90
38380;DHT22;38377;47.418;18.882;2022-07-05T11:20:16;20.70;99.90
38380;DHT22;38377;47.418;18.882;2022-07-05T11:23:28;20.60;99.90
38380;DHT22;38377;47.418;18.882;2022-07-05T11:25:55;20.60;99.90
38380;DHT22;38377;47.418;18.882;2022-07-05T11:28:23;20.60;99.90
38380;DHT22;38377;47.418;18.882;2022-07-05T11:33:26;20.50;99.90
38380;DHT22;38377;47.418;18.882;2022-07-05T11:35:52;20.50;99.90
38380;DHT22;38377;47.418;18.882;2022-07-05T11:38:18;20.50;99.90
38380;DHT22;38377;47.418;18.882;2022-07-05T11:40:44;20.50;99.90
38380;DHT22;38377;47.418;18.882;2022-07-05T11:43:09;20.60;99.90
38380;DHT22;38377;47.418;18.882;2022-07-05T11:45:36;20.60;99.90
38380;DHT22;38377;47.418;18.882;2022-07-05T11:48:04;20.60;99.90
38380;DHT22;38377;47.418;18.882;2022-07-05T11:50:32;20.60;99.90
38380;DHT22;38377;47.418;18.882;2022-07-05T11:53:01;20.80;99.90
38380;DHT22;38377;47.418;18.882;2022-07-05T11:55:28;20.70;99.90
38380;DHT22;38377;47.418;18.882;2022-07-05T11:57:56;20.70;99.90
38380;DHT22;38377;47.418;18.882;2022-07-05T12:00:33;20.70;99.90
38380;DHT22;38377;47.418;18.882;2022-07-05T12:03:09;20.80;99.90
38380;DHT22;38377;47.418;18.882;2022-07-05T12:05:35;20.80;99.90
38380;DHT22;38377;47.418;18.882;2022-07-05T12:08:01;20.80;99.90
38380;DHT22;38377;47.418;18.882;2022-07-05T12:10:26;20.80;99.90
38380;DHT22;38377;47.418;18.882;2022-07-05T12:13:10;20.80;99.90
38380;DHT22;38377;47.418;18.882;2022-07-05T12:15:37;20.70;99.90
38380;DHT22;38377;47.418;18.882;2022-07-05T12:18:04;20.70;99.90
38380;DHT22;38377;47.418;18.882;2022-07-05T12:20:33;20.70;99.90
38380;DHT22;38377;47.418;18.882;2022-07-05T12:22:59;20.70;99.90
38380;DHT22;38377;47.418;18.882;2022-07-05T12:25:27;20.60;99.90
38380;DHT22;38377;47.418;18.882;2022-07-05T12:27:54;20.50;99.90
38380;DHT22;38377;47.418;18.882;2022-07-05T12:30:20;20.50;99.90
38380;DHT22;38377;47.418;18.882;2022-07-05T12:32:56;20.40;99.90
38380;DHT22;38377;47.418;18.882;2022-07-05T12:35:32;20.40;99.90
38380;DHT22;38377;47.418;18.882;2022-07-05T12:38:03;20.30;99.90
38380;DHT22;38377;47.418;18.882;2022-07-05T12:40:29;20.10;99.90
38380;DHT22;38377;47.418;18.882;2022-07-05T12:43:06;20.00;99.90
38380;DHT22;38377;47.418;18.882;2022-07-05T12:45:32;20.10;99.90
38380;DHT22;38377;47.418;18.882;2022-07-05T12:48:00;20.00;99.90
38380;DHT22;38377;47.418;18.882;2022-07-05T12:50:28;19.90;99.90
38380;DHT22;38377;47.418;18.882;2022-07-05T12:53:06;19.90;99.90
38380;DHT22;38377;47.418;18.882;2022-07-05T12:56:01;20.00;99.90
38380;DHT22;38377;47.418;18.882;2022-07-05T13:01:40;20.10;99.90
38380;DHT22;38377;47.418;18.882;2022-07-05T13:06:50;20.10;99.90
38380;DHT22;38377;47.418;18.882;2022-07-05T13:09:37;20.20;99.90
38380;DHT22;38377;47.418;18.882;2022-07-05T13:14:37;20.40;99.90
38380;DHT22;38377;47.418;18.882;2022-07-05T13:17:03;20.50;99.90
38380;DHT22;38377;47.418;18.882;2022-07-05T13:19:29;20.60;99.90
38380;DHT22;38377;47.418;18.882;2022-07-05T13:21:54;20.60;99.90
38380;DHT22;38377;47.418;18.882;2022-07-05T13:24:20;20.60;99.90
38380;DHT22;38377;47.418;18.882;2022-07-05T13:26:46;20.50;99.90
38380;DHT22;38377;47.418;18.882;2022-07-05T13:29:12;20.60;99.90
38380;DHT22;38377;47.418;18.882;2022-07-05T13:31:37;20.60;99.90
38380;DHT22;38377;47.418;18.882;2022-07-05T13:34:03;20.60;99.90
38380;DHT22;38377;47.418;18.882;2022-07-05T13:36:29;20.70;99.90
38380;DHT22;38377;47.418;18.882;2022-07-05T13:38:54;20.80;99.90
38380;DHT22;38377;47.418;18.882;2022-07-05T13:41:20;20.80;99.90
38380;DHT22;38377;47.418;18.882;2022-07-05T13:43:46;20.90;99.90
38380;DHT22;38377;47.418;18.882;2022-07-05T13:46:12;21.00;99.90
38380;DHT22;38377;47.418;18.882;2022-07-05T13:48:38;21.20;99.90
38380;DHT22;38377;47.418;18.882;2022-07-05T13:51:05;21.20;99.90
38380;DHT22;38377;47.418;18.882;2022-07-05T13:53:30;21.30;99.90
38380;DHT22;38377;47.418;18.882;2022-07-05T13:55:56;21.40;99.90
38380;DHT22;38377;47.418;18.882;2022-07-05T13:58:22;21.60;99.90
38380;DHT22;38377;47.418;18.882;2022-07-05T14:00:48;21.80;99.90
38380;DHT22;38377;47.418;18.882;2022-07-05T14:03:14;21.90;99.90
38380;DHT22;38377;47.418;18.882;2022-07-05T14:05:44;21.90;99.90
38380;DHT22;38377;47.418;18.882;2022-07-05T14:08:13;22.00;99.90
38380;DHT22;38377;47.418;18.882;2022-07-05T14:10:40;22.00;99.90
38380;DHT22;38377;47.418;18.882;2022-07-05T14:13:06;22.00;99.90
38380;DHT22;38377;47.418;18.882;2022-07-05T14:15:32;22.00;99.90
38380;DHT22;38377;47.418;18.882;2022-07-05T14:17:58;22.10;99.90
38380;DHT22;38377;47.418;18.882;2022-07-05T14:20:28;22.20;99.90
38380;DHT22;38377;47.418;18.882;2022-07-05T14:22:53;22.30;99.90
38380;DHT22;38377;47.418;18.882;2022-07-05T14:25:19;22.30;99.90
38380;DHT22;38377;47.418;18.882;2022-07-05T14:27:45;22.40;99.90
38380;DHT22;38377;47.418;18.882;2022-07-05T14:30:11;22.50;99.90
38380;DHT22;38377;47.418;18.882;2022-07-05T14:32:37;22.60;99.90
38380;DHT22;38377;47.418;18.882;2022-07-05T14:35:04;22.80;99.90
38380;DHT22;38377;47.418;18.882;2022-07-05T14:37:30;22.90;99.90
38380;DHT22;38377;47.418;18.882;2022-07-05T14:39:55;22.90;99.90
38380;DHT22;38377;47.418;18.882;2022-07-05T14:42:21;22.90;99.90
38380;DHT22;38377;47.418;18.882;2022-07-05T14:44:47;22.80;99.90
38380;DHT22;38377;47.418;18.882;2022-07-05T14:47:13;22.80;99.90
38380;DHT22;38377;47.418;18.882;2022-07-05T14:49:40;22.80;99.90
38380;DHT22;38377;47.418;18.882;2022-07-05T14:52:06;22.60;99.90
38380;DHT22;38377;47.418;18.882;2022-07-05T14:54:31;22.40;99.90
38380;DHT22;38377;47.418;18.882;2022-07-05T14:56:57;22.50;99.90
38380;DHT22;38377;47.418;18.882;2022-07-05T14:59:23;22.60;99.90
38380;DHT22;38377;47.418;18.882;2022-07-05T15:01:48;22.70;99.90
38380;DHT22;38377;47.418;18.882;2022-07-05T15:04:14;22.80;99.90
38380;DHT22;38377;47.418;18.882;2022-07-05T15:06:40;22.90;99.90
38380;DHT22;38377;47.418;18.882;2022-07-05T15:09:06;23.10;99.90
38380;DHT22;38377;47.418;18.882;2022-07-05T15:11:32;23.20;99.90
38380;DHT22;38377;47.418;18.882;2022-07-05T15:13:58;23.20;99.90
38380;DHT22;38377;47.418;18.882;2022-07-05T15:16:25;23.20;99.90
38380;DHT22;38377;47.418;18.882;2022-07-05T15:18:51;23.20;99.90
38380;DHT22;38377;47.418;18.882;2022-07-05T15:21:18;22.90;99.90
38380;DHT22;38377;47.418;18.882;2022-07-05T15:23:44;22.80;99.90
38380;DHT22;38377;47.418;18.882;2022-07-05T15:26:10;22.80;99.90
38380;DHT22;38377;47.418;18.882;2022-07-05T15:28:36;22.60;99.90
38380;DHT22;38377;47.418;18.882;2022-07-05T15:31:02;22.60;99.90
38380;DHT22;38377;47.418;18.882;2022-07-05T15:33:27;22.50;99.90
38380;DHT22;38377;47.418;18.882;2022-07-05T15:35:56;22.50;99.90
38380;DHT22;38377;47.418;18.882;2022-07-05T15:38:23;22.70;99.90
38380;DHT22;38377;47.418;18.882;2022-07-05T15:40:49;22.90;99.90
38380;DHT22;38377;47.418;18.882;2022-07-05T15:43:16;22.80;99.90
38380;DHT22;38377;47.418;18.882;2022-07-05T15:45:43;22.70;99.90
38380;DHT22;38377;47.418;18.882;2022-07-05T15:48:09;22.60;99.90